createdAt,value
2023-04-10T00:04:31.233Z,101308.66
2023-04-10T00:09:53.617Z,101306.09
2023-04-10T00:15:15.511Z,101314.69
2023-04-10T00:20:37.317Z,101309.59
2023-04-10T00:25:59.180Z,101310.50
2023-04-10T00:31:21.054Z,101313.97
2023-04-10T00:36:42.950Z,101312.25
2023-04-10T00:42:04.760Z,101308.81
2023-04-10T00:47:28.142Z,101313.97
2023-04-10T00:52:50.077Z,101326.03
2023-04-10T00:58:11.890Z,101336.38
2023-04-10T01:03:34.631Z,101332.94
2023-04-10T01:09:17.585Z,101334.69
2023-04-10T01:14:42.193Z,101327.84
2023-04-10T01:20:12.400Z,101324.41
2023-04-10T01:25:48.494Z,101327.84
2023-04-10T01:31:16.683Z,101324.41
2023-04-10T01:36:49.410Z,101321.84
2023-04-10T01:42:14.888Z,101309.88
2023-04-10T01:47:37.867Z,101315.09
2023-04-10T01:53:01.185Z,101312.47
2023-04-10T01:58:23.049Z,101311.63
2023-04-10T02:03:45.031Z,101328.75
2023-04-10T02:09:23.455Z,101322.78
2023-04-10T02:14:47.384Z,101320.22
2023-04-10T02:20:10.689Z,101321.06
2023-04-10T02:25:33.147Z,101319.34
2023-04-10T02:30:55.046Z,101330.47
2023-04-10T02:36:16.953Z,101326.22
2023-04-10T02:41:38.883Z,101324.50
2023-04-10T02:47:00.745Z,101327.03
2023-04-10T02:52:22.610Z,101324.47
2023-04-10T02:57:44.467Z,101320.22
2023-04-10T03:03:06.521Z,101333.06
2023-04-10T03:08:28.487Z,101331.34
2023-04-10T03:13:50.291Z,101319.38
2023-04-10T03:19:12.136Z,101326.22
2023-04-10T03:24:33.967Z,101326.22
2023-04-10T03:29:55.810Z,101315.13
2023-04-10T03:35:17.666Z,101333.09
2023-04-10T03:40:39.496Z,101321.97
2023-04-10T03:46:01.343Z,101318.53
2023-04-10T03:51:23.488Z,101320.25
2023-04-10T03:56:45.354Z,101312.56
2023-04-10T04:02:07.705Z,101327.94
2023-04-10T04:07:29.748Z,101329.69
2023-04-10T04:12:51.511Z,101333.09
2023-04-10T04:18:13.466Z,101339.91
2023-04-10T04:23:35.307Z,101347.44
2023-04-10T04:28:57.159Z,101338.50
2023-04-10T04:34:19.129Z,101343.28
2023-04-10T04:39:40.964Z,101342.81
2023-04-10T04:45:03.028Z,101346.63
2023-04-10T04:50:24.887Z,101324.56
2023-04-10T04:55:46.767Z,101337.94
2023-04-10T05:01:08.810Z,101335.94
2023-04-10T05:06:30.688Z,101343.91
2023-04-10T05:11:52.649Z,101344.53
2023-04-10T05:17:14.488Z,101368.22
2023-04-10T05:22:36.407Z,101370.69
2023-04-10T05:27:58.275Z,101360.91
2023-04-10T05:33:20.116Z,101368.06
2023-04-10T05:38:42.028Z,101384.50
2023-04-10T05:44:03.878Z,101390.53
2023-04-10T05:49:25.705Z,101387.63
2023-04-10T05:54:47.565Z,101386.72
2023-04-10T06:00:09.977Z,101391.00
2023-04-10T06:05:31.800Z,101401.72
2023-04-10T06:10:53.732Z,101398.28
2023-04-10T06:16:15.646Z,101394.63
2023-04-10T06:21:37.641Z,101392.00
2023-04-10T06:26:59.474Z,101383.44
2023-04-10T06:32:21.395Z,101378.41
2023-04-10T06:37:43.342Z,101381.97
2023-04-10T06:43:05.174Z,101391.38
2023-04-10T06:48:27.163Z,101394.66
2023-04-10T06:53:49.010Z,101390.31
2023-04-10T06:59:10.838Z,101403.63
2023-04-10T07:04:32.731Z,101402.47
2023-04-10T07:09:54.650Z,101409.09
2023-04-10T07:15:16.679Z,101402.19
2023-04-10T07:20:38.529Z,101406.91
2023-04-10T07:26:00.331Z,101398.31
2023-04-10T07:31:22.236Z,101400.06
2023-04-10T07:36:46.013Z,101399.25
2023-04-10T07:42:07.961Z,101406.56
2023-04-10T07:47:29.849Z,101404.72
2023-04-10T07:52:51.668Z,101391.47
2023-04-10T07:58:13.497Z,101395.31
2023-04-10T08:03:42.590Z,101398.19
2023-04-10T08:09:04.680Z,101389.75
2023-04-10T08:14:26.511Z,101387.84
2023-04-10T08:19:48.316Z,101388.31
2023-04-10T08:25:10.365Z,101383.97
2023-04-10T08:30:32.309Z,101378.53
2023-04-10T08:35:54.233Z,101373.84
2023-04-10T08:41:18.723Z,101374.59
2023-04-10T08:46:43.939Z,101387.94
2023-04-10T08:52:08.620Z,101364.66
2023-04-10T08:57:30.603Z,101371.50
2023-04-10T09:02:52.612Z,101364.22
2023-04-10T09:08:15.391Z,101353.00
2023-04-10T09:13:42.818Z,101364.75
2023-04-10T09:19:06.404Z,101349.28
2023-04-10T09:24:29.057Z,101345.44
2023-04-10T09:29:50.857Z,101345.38
2023-04-10T09:35:14.951Z,101323.97
2023-04-10T09:40:36.860Z,101332.88
2023-04-10T09:45:58.847Z,101318.63
2023-04-10T09:51:32.079Z,101318.44
2023-04-10T09:56:54.480Z,101312.50
2023-04-10T10:02:18.089Z,101300.91
2023-04-10T10:07:40.037Z,101303.97
2023-04-10T10:13:02.687Z,101302.56
2023-04-10T10:18:45.350Z,101297.78
2023-04-10T10:24:09.217Z,101298.75
2023-04-10T10:29:32.440Z,101283.91
2023-04-10T10:34:54.498Z,101277.94
2023-04-10T10:40:31.349Z,101267.47
2023-04-10T10:46:05.098Z,101271.72
2023-04-10T10:51:50.459Z,101262.25
2023-04-10T10:57:47.735Z,101265.16
2023-04-10T11:03:09.659Z,101262.81
2023-04-10T11:08:34.263Z,101249.00
2023-04-10T11:13:56.033Z,101239.63
2023-04-10T11:19:20.760Z,101242.97
2023-04-10T11:24:54.459Z,101238.84
2023-04-10T11:30:30.262Z,101227.94
2023-04-10T11:35:52.404Z,101223.94
2023-04-10T11:41:14.290Z,101213.97
2023-04-10T11:46:42.058Z,101213.47
2023-04-10T11:52:03.958Z,101202.69
2023-04-10T11:57:35.145Z,101206.03
2023-04-10T12:02:57.311Z,101199.28
2023-04-10T12:08:19.327Z,101172.47
2023-04-10T12:13:41.162Z,101156.84
2023-04-10T12:19:03.133Z,101145.28
2023-04-10T12:24:42.010Z,101157.97
2023-04-10T12:30:07.765Z,101136.59
2023-04-10T12:35:40.273Z,101137.28
2023-04-10T12:41:03.263Z,101134.78
2023-04-10T12:46:28.366Z,101141.19
2023-04-10T12:51:52.123Z,101132.59
2023-04-10T12:57:26.265Z,101123.94
2023-04-10T13:02:49.262Z,101106.91
2023-04-10T13:08:11.307Z,101130.00
2023-04-10T13:13:33.125Z,101113.66
2023-04-10T13:18:55.063Z,101120.31
2023-04-10T13:24:17.043Z,101128.72
2023-04-10T13:29:42.925Z,101133.34
2023-04-10T13:35:05.345Z,101125.28
2023-04-10T13:40:27.477Z,101115.94
2023-04-10T13:45:49.302Z,101119.88
2023-04-10T13:51:11.138Z,101110.84
2023-04-10T13:56:32.923Z,101116.53
2023-04-10T14:01:54.931Z,101100.22
2023-04-10T14:07:17.911Z,101092.22
2023-04-10T14:12:39.696Z,101096.09
2023-04-10T14:18:01.535Z,101072.47
2023-04-10T14:23:23.377Z,101079.13
2023-04-10T14:28:45.196Z,101083.41
2023-04-10T14:34:07.015Z,101082.13
2023-04-10T14:39:28.851Z,101069.66
2023-04-10T14:44:50.672Z,101062.22
2023-04-10T14:50:12.770Z,101057.91
2023-04-10T14:55:34.615Z,101057.72
2023-04-10T15:00:56.468Z,101065.34
2023-04-10T15:06:18.276Z,101051.84
2023-04-10T15:11:40.122Z,101045.47
2023-04-10T15:17:01.984Z,101042.88
2023-04-10T15:22:23.921Z,101034.97
2023-04-10T15:27:45.775Z,101022.16
2023-04-10T15:33:07.638Z,101017.25
2023-04-10T15:38:29.783Z,101010.50
2023-04-10T15:43:51.637Z,101010.44
2023-04-10T15:49:16.378Z,101009.19
2023-04-10T15:54:42.277Z,100991.22
2023-04-10T16:00:04.813Z,100999.59
2023-04-10T16:05:26.905Z,100985.63
2023-04-10T16:10:48.705Z,101004.97
2023-04-10T16:16:15.021Z,100997.75
2023-04-10T16:21:36.978Z,100993.41
2023-04-10T16:26:58.804Z,100987.53
2023-04-10T16:32:20.871Z,100997.88
2023-04-10T16:37:42.706Z,100985.75
2023-04-10T16:43:04.523Z,100983.97
2023-04-10T16:48:26.531Z,100994.72
2023-04-10T16:53:48.337Z,100990.44
2023-04-10T16:59:10.213Z,100984.88
2023-04-10T17:04:32.155Z,100990.53
2023-04-10T17:09:53.995Z,100972.31
2023-04-10T17:15:15.931Z,100990.25
2023-04-10T17:20:37.864Z,100973.78
2023-04-10T17:25:59.722Z,100989.63
2023-04-10T17:31:21.704Z,100984.19
2023-04-10T17:36:43.637Z,100989.72
2023-04-10T17:42:05.555Z,100988.56
2023-04-10T17:47:27.492Z,100983.38
2023-04-10T17:52:49.517Z,100981.78
2023-04-10T17:58:11.590Z,100974.44
2023-04-10T18:03:33.583Z,100983.34
2023-04-10T18:08:56.934Z,100982.94
2023-04-10T18:14:19.812Z,100983.19
2023-04-10T18:19:41.679Z,100988.69
2023-04-10T18:25:03.703Z,100986.63
2023-04-10T18:30:25.604Z,100976.44
2023-04-10T18:35:47.489Z,100976.00
2023-04-10T18:41:09.296Z,100972.84
2023-04-10T18:46:31.269Z,100980.44
2023-04-10T18:51:53.094Z,100972.84
2023-04-10T18:57:14.922Z,100957.34
2023-04-10T19:02:36.916Z,100968.53
2023-04-10T19:08:04.083Z,100952.31
2023-04-10T19:13:26.730Z,100946.97
2023-04-10T19:18:48.841Z,100968.75
2023-04-10T19:24:10.670Z,100953.44
2023-04-10T19:29:32.565Z,100962.06
2023-04-10T19:34:54.413Z,100953.78
2023-04-10T19:40:18.387Z,100953.47
2023-04-10T19:45:40.222Z,100944.06
2023-04-10T19:51:05.504Z,100943.28
2023-04-10T19:56:27.346Z,100936.66
2023-04-10T20:01:49.389Z,100925.22
2023-04-10T20:07:11.291Z,100926.59
2023-04-10T20:12:33.216Z,100933.00
2023-04-10T20:17:55.050Z,100928.16
2023-04-10T20:23:16.946Z,100924.09
2023-04-10T20:28:39.042Z,100919.03
2023-04-10T20:34:00.885Z,100915.25
2023-04-10T20:39:23.004Z,100898.97
2023-04-10T20:44:44.917Z,100916.19
2023-04-10T20:50:07.819Z,100905.28
2023-04-10T20:55:29.690Z,100911.28
2023-04-10T21:00:52.614Z,100911.38
2023-04-10T21:06:14.517Z,100906.34
2023-04-10T21:11:36.322Z,100915.91
2023-04-10T21:16:58.204Z,100912.81
2023-04-10T21:22:20.083Z,100895.75
2023-04-10T21:27:42.019Z,100904.44
2023-04-10T21:33:03.861Z,100897.06
2023-04-10T21:38:25.745Z,100905.72
2023-04-10T21:43:47.588Z,100886.91
2023-04-10T21:49:09.425Z,100894.84
2023-04-10T21:54:31.258Z,100859.16
2023-04-10T21:59:53.038Z,100866.84
2023-04-10T22:05:14.868Z,100880.19
2023-04-10T22:10:36.821Z,100863.09
2023-04-10T22:16:00.652Z,100866.41
2023-04-10T22:21:22.459Z,100861.16
2023-04-10T22:26:44.304Z,100856.34
2023-04-10T22:32:06.200Z,100854.38
2023-04-10T22:37:28.117Z,100860.72
2023-04-10T22:42:50.220Z,100853.25
2023-04-10T22:48:12.116Z,100844.94
2023-04-10T22:53:33.951Z,100828.72
2023-04-10T22:58:55.938Z,100833.22
2023-04-10T23:04:17.887Z,100831.91
2023-04-10T23:09:39.778Z,100817.56
2023-04-10T23:15:01.667Z,100816.84
2023-04-10T23:20:24.306Z,100811.09
2023-04-10T23:25:46.161Z,100801.59
2023-04-10T23:31:08.276Z,100788.84
2023-04-10T23:36:30.103Z,100781.19
2023-04-10T23:41:51.927Z,100773.59
2023-04-10T23:47:13.755Z,100762.72
2023-04-10T23:52:35.623Z,100766.91
2023-04-10T23:57:57.431Z,100753.19
